createdAt,value
2017-09-26T00:02:02.070Z,23.10
2017-09-26T00:04:31.294Z,20.37
2017-09-26T00:07:01.575Z,20.37
2017-09-26T00:09:31.134Z,21.97
2017-09-26T00:12:00.276Z,24.13
2017-09-26T00:14:29.413Z,21.87
2017-09-26T00:16:58.834Z,21.73
2017-09-26T00:19:27.963Z,23.50
2017-09-26T00:21:57.141Z,21.20
2017-09-26T00:24:26.734Z,24.03
2017-09-26T00:26:55.835Z,22.27
2017-09-26T00:29:25.949Z,21.33
2017-09-26T00:31:55.486Z,21.27
2017-09-26T00:34:25.676Z,23.00
2017-09-26T00:36:55.613Z,23.37
2017-09-26T00:39:24.826Z,23.47
2017-09-26T00:41:53.958Z,23.47
2017-09-26T00:44:23.482Z,24.50
2017-09-26T00:46:52.811Z,21.80
2017-09-26T00:49:22.753Z,23.67
2017-09-26T00:51:51.952Z,22.20
2017-09-26T00:54:21.386Z,23.50
2017-09-26T00:56:51.350Z,24.97
2017-09-26T00:59:20.597Z,22.27
2017-09-26T01:01:50.208Z,22.87
2017-09-26T01:04:19.651Z,24.60
2017-09-26T01:06:52.806Z,24.90
2017-09-26T01:09:21.979Z,27.00
2017-09-26T01:11:51.199Z,24.93
2017-09-26T01:14:20.658Z,23.10
2017-09-26T01:16:49.849Z,22.63
2017-09-26T01:19:20.269Z,24.80
2017-09-26T01:21:50.574Z,25.20
2017-09-26T01:24:20.591Z,25.67
2017-09-26T01:26:49.858Z,23.43
2017-09-26T01:29:19.198Z,25.80
2017-09-26T01:31:49.181Z,24.70
2017-09-26T01:34:18.383Z,25.80
2017-09-26T01:36:48.451Z,23.20
2017-09-26T01:39:17.629Z,25.33
2017-09-26T01:41:46.897Z,24.30
2017-09-26T01:44:18.143Z,23.50
2017-09-26T01:46:48.086Z,24.83
2017-09-26T01:49:17.323Z,24.00
2017-09-26T01:51:46.941Z,25.80
2017-09-26T01:54:16.125Z,22.20
2017-09-26T01:57:03.203Z,23.80
2017-09-26T01:59:32.345Z,24.23
2017-09-26T02:02:01.465Z,24.63
2017-09-26T02:04:30.770Z,23.30
2017-09-26T02:06:59.867Z,23.73
2017-09-26T02:09:28.963Z,24.70
2017-09-26T02:11:58.463Z,24.70
2017-09-26T02:14:27.561Z,25.27
2017-09-26T02:16:56.709Z,25.43
2017-09-26T02:19:27.051Z,26.10
2017-09-26T02:21:56.924Z,25.47
2017-09-26T02:24:26.091Z,28.70
2017-09-26T02:26:55.750Z,27.33
2017-09-26T02:29:24.861Z,26.93
2017-09-26T02:31:53.990Z,25.67
2017-09-26T02:34:24.192Z,25.00
2017-09-26T02:36:54.150Z,25.10
2017-09-26T02:39:23.293Z,24.40
2017-09-26T02:41:53.081Z,26.47
2017-09-26T02:44:22.200Z,26.97
2017-09-26T02:46:51.456Z,26.57
2017-09-26T02:49:20.902Z,26.20
2017-09-26T02:51:50.058Z,26.30
2017-09-26T02:54:19.229Z,24.30
2017-09-26T02:56:48.786Z,25.13
2017-09-26T02:59:17.929Z,26.27
2017-09-26T03:01:47.096Z,24.17
2017-09-26T03:04:17.089Z,25.07
2017-09-26T03:06:46.270Z,24.80
2017-09-26T03:09:15.520Z,27.43
2017-09-26T03:11:44.873Z,25.10
2017-09-26T03:14:14.854Z,26.00
2017-09-26T03:16:44.108Z,23.90
2017-09-26T03:19:13.610Z,25.23
2017-09-26T03:21:42.762Z,25.60
2017-09-26T03:24:12.778Z,26.83
2017-09-26T03:26:42.259Z,27.50
2017-09-26T03:29:11.509Z,25.10
2017-09-26T03:31:40.835Z,25.23
2017-09-26T03:34:10.571Z,26.00
2017-09-26T03:36:39.844Z,26.13
2017-09-26T03:39:09.277Z,26.00
2017-09-26T03:41:39.558Z,27.50
2017-09-26T03:44:09.769Z,26.50
2017-09-26T03:46:39.016Z,29.17
2017-09-26T03:49:08.235Z,27.80
2017-09-26T03:51:38.617Z,30.50
2017-09-26T03:54:07.940Z,28.50
2017-09-26T03:56:37.395Z,29.53
2017-09-26T03:59:07.546Z,30.27
2017-09-26T04:01:36.705Z,31.60
2017-09-26T04:04:06.228Z,32.27
2017-09-26T04:06:36.260Z,31.63
2017-09-26T04:09:05.524Z,29.10
2017-09-26T04:11:35.588Z,31.00
2017-09-26T04:14:04.760Z,30.57
2017-09-26T04:16:34.016Z,31.50
2017-09-26T04:19:03.222Z,32.67
2017-09-26T04:21:32.421Z,33.50
2017-09-26T04:24:02.374Z,34.80
2017-09-26T04:26:31.713Z,33.33
2017-09-26T04:29:00.907Z,33.97
2017-09-26T04:31:30.806Z,35.73
2017-09-26T04:34:00.214Z,34.57
2017-09-26T04:36:30.200Z,34.50
2017-09-26T04:39:00.196Z,33.17
2017-09-26T04:41:29.605Z,36.80
2017-09-26T04:43:58.781Z,34.80
2017-09-26T04:46:27.912Z,34.90
2017-09-26T04:48:58.268Z,36.53
2017-09-26T04:51:28.441Z,35.60
2017-09-26T04:53:57.613Z,35.70
2017-09-26T04:56:27.049Z,36.20
2017-09-26T04:58:56.283Z,35.60
2017-09-26T05:01:25.467Z,35.70
2017-09-26T05:03:55.018Z,38.67
2017-09-26T05:06:24.185Z,38.37
2017-09-26T05:08:53.311Z,37.70
2017-09-26T05:11:23.154Z,36.40
2017-09-26T05:13:56.863Z,38.97
2017-09-26T05:16:26.335Z,38.70
2017-09-26T05:18:56.380Z,38.13
2017-09-26T05:21:25.552Z,39.90
2017-09-26T05:23:55.047Z,38.40
2017-09-26T05:26:24.765Z,37.67
2017-09-26T05:28:55.661Z,37.17
2017-09-26T05:31:24.790Z,39.43
2017-09-26T05:34:10.718Z,37.97
2017-09-26T05:36:40.633Z,39.83
2017-09-26T05:39:09.943Z,38.90
2017-09-26T05:41:40.290Z,35.87
2017-09-26T05:44:10.414Z,38.70
2017-09-26T05:46:39.645Z,39.90
2017-09-26T05:49:09.078Z,38.37
2017-09-26T05:51:38.276Z,38.80
2017-09-26T05:54:08.513Z,38.63
2017-09-26T05:56:38.116Z,35.30
2017-09-26T05:59:07.238Z,35.63
2017-09-26T06:01:36.468Z,35.07
2017-09-26T06:04:05.775Z,35.57
2017-09-26T06:06:34.877Z,37.30
2017-09-26T06:09:05.015Z,34.50
2017-09-26T06:11:34.471Z,35.60
2017-09-26T06:14:05.484Z,42.07
2017-09-26T06:16:34.668Z,37.27
2017-09-26T06:19:03.852Z,35.80
2017-09-26T06:21:33.762Z,37.90
2017-09-26T06:24:03.723Z,33.30
2017-09-26T06:26:33.260Z,33.83
2017-09-26T06:29:02.458Z,34.83
2017-09-26T06:31:31.781Z,36.20
2017-09-26T06:34:01.084Z,39.07
2017-09-26T06:36:31.772Z,37.20
2017-09-26T06:39:00.935Z,35.13
2017-09-26T06:41:30.088Z,35.00
2017-09-26T06:43:59.251Z,36.20
2017-09-26T06:46:28.385Z,33.67
2017-09-26T06:48:58.874Z,36.03
2017-09-26T06:51:28.009Z,37.17
2017-09-26T06:53:57.177Z,38.30
2017-09-26T06:56:26.687Z,38.90
2017-09-26T06:58:56.131Z,34.00
2017-09-26T07:01:26.208Z,34.30
2017-09-26T07:03:55.661Z,36.10
2017-09-26T07:06:24.809Z,34.83
2017-09-26T07:08:53.935Z,37.37
2017-09-26T07:11:24.083Z,36.37
2017-09-26T07:13:53.203Z,39.50
2017-09-26T07:16:22.339Z,35.07
2017-09-26T07:18:51.638Z,37.07
2017-09-26T07:21:20.824Z,39.00
2017-09-26T07:23:50.936Z,39.23
2017-09-26T07:26:20.202Z,37.13
2017-09-26T07:28:49.336Z,36.90
2017-09-26T07:31:19.302Z,39.87
2017-09-26T07:33:48.947Z,39.27
2017-09-26T07:36:18.073Z,38.13
2017-09-26T07:38:47.174Z,41.13
2017-09-26T07:41:17.330Z,39.20
2017-09-26T07:43:46.531Z,38.50
2017-09-26T07:46:15.830Z,40.83
2017-09-26T07:48:45.030Z,40.07
2017-09-26T07:51:14.212Z,39.70
2017-09-26T07:53:43.500Z,38.93
2017-09-26T07:56:14.493Z,38.77
2017-09-26T07:58:43.738Z,40.23
2017-09-26T08:01:13.353Z,39.10
2017-09-26T08:03:43.187Z,39.10
2017-09-26T08:06:13.100Z,39.90
2017-09-26T08:08:43.577Z,42.60
2017-09-26T08:11:13.032Z,40.30
2017-09-26T08:13:42.325Z,43.27
2017-09-26T08:16:11.632Z,41.10
2017-09-26T08:18:41.339Z,39.70
2017-09-26T08:21:11.412Z,43.13
2017-09-26T08:23:40.765Z,42.60
2017-09-26T08:26:10.879Z,39.53
2017-09-26T08:28:40.895Z,42.10
2017-09-26T08:31:10.230Z,39.83
2017-09-26T08:33:39.792Z,40.87
2017-09-26T08:36:10.045Z,39.93
2017-09-26T08:38:39.488Z,42.07
2017-09-26T08:41:08.922Z,43.50
2017-09-26T08:43:38.122Z,38.50
2017-09-26T08:46:08.123Z,41.23
2017-09-26T08:48:38.295Z,39.23
2017-09-26T08:51:07.562Z,39.20
2017-09-26T08:53:36.747Z,39.23
2017-09-26T08:56:06.944Z,39.57
2017-09-26T08:58:36.064Z,41.20
2017-09-26T09:01:05.267Z,40.80
2017-09-26T09:03:35.486Z,39.63
2017-09-26T09:06:04.599Z,38.17
2017-09-26T09:08:33.780Z,39.90
2017-09-26T09:11:03.877Z,39.63
2017-09-26T09:13:32.998Z,35.30
2017-09-26T09:16:03.012Z,37.87
2017-09-26T09:18:32.520Z,40.67
2017-09-26T09:21:02.716Z,37.13
2017-09-26T09:23:32.007Z,38.50
2017-09-26T09:26:01.170Z,38.67
2017-09-26T09:28:30.286Z,38.30
2017-09-26T09:30:59.431Z,38.53
2017-09-26T09:33:28.898Z,39.00
2017-09-26T09:35:58.046Z,39.47
2017-09-26T09:38:27.305Z,40.33
2017-09-26T09:40:57.593Z,40.70
2017-09-26T09:43:27.544Z,42.17
2017-09-26T09:45:56.691Z,41.40
2017-09-26T09:48:25.990Z,40.33
2017-09-26T09:50:55.703Z,39.33
2017-09-26T09:53:25.221Z,40.87
2017-09-26T09:55:54.643Z,41.00
2017-09-26T09:58:23.759Z,42.37
2017-09-26T10:00:52.898Z,43.70
2017-09-26T10:03:22.200Z,42.73
2017-09-26T10:05:52.157Z,47.90
2017-09-26T10:08:21.351Z,43.70
2017-09-26T10:10:50.629Z,45.13
2017-09-26T10:13:20.931Z,42.17
2017-09-26T10:15:50.117Z,43.03
2017-09-26T10:18:20.359Z,43.57
2017-09-26T10:20:50.273Z,42.87
2017-09-26T10:23:20.219Z,44.40
2017-09-26T10:25:50.494Z,46.23
2017-09-26T10:28:19.648Z,41.50
2017-09-26T10:30:49.694Z,47.27
2017-09-26T10:33:20.122Z,44.70
2017-09-26T10:35:49.245Z,44.87
2017-09-26T10:38:19.967Z,44.00
2017-09-26T10:40:51.604Z,38.03
2017-09-26T10:43:24.122Z,45.00
2017-09-26T10:45:53.718Z,40.03
2017-09-26T10:48:23.785Z,38.70
2017-09-26T10:50:52.969Z,39.60
2017-09-26T10:53:23.866Z,40.30
2017-09-26T10:55:53.022Z,38.90
2017-09-26T10:58:23.701Z,39.87
2017-09-26T11:00:52.938Z,39.03
2017-09-26T11:03:23.007Z,40.23
2017-09-26T11:05:52.211Z,39.93
2017-09-26T11:08:21.762Z,38.57
2017-09-26T11:10:50.905Z,39.83
2017-09-26T11:13:20.083Z,42.77
2017-09-26T11:15:49.281Z,39.20
2017-09-26T11:18:20.326Z,40.67
2017-09-26T11:20:49.475Z,38.23
2017-09-26T11:23:18.879Z,38.17
2017-09-26T11:25:48.122Z,42.80
2017-09-26T11:28:17.285Z,38.47
2017-09-26T11:30:46.927Z,37.37
2017-09-26T11:33:16.903Z,41.53
2017-09-26T11:35:46.255Z,40.37
2017-09-26T11:38:15.718Z,41.07
2017-09-26T11:40:45.439Z,39.30
2017-09-26T11:43:14.874Z,38.97
2017-09-26T11:45:45.255Z,39.43
2017-09-26T11:48:14.395Z,41.03
2017-09-26T11:50:43.583Z,41.90
2017-09-26T11:53:14.426Z,46.50
2017-09-26T11:55:43.651Z,43.20
2017-09-26T11:58:13.909Z,44.20
2017-09-26T12:00:43.126Z,41.83
2017-09-26T12:03:12.310Z,44.10
2017-09-26T12:05:42.102Z,43.23
2017-09-26T12:08:11.255Z,40.80
2017-09-26T12:10:40.385Z,42.67
2017-09-26T12:13:16.189Z,45.53
2017-09-26T12:15:45.363Z,40.83
2017-09-26T12:18:14.634Z,44.07
2017-09-26T12:20:43.896Z,42.63
2017-09-26T12:23:13.069Z,41.20
2017-09-26T12:25:42.257Z,41.60
2017-09-26T12:28:12.550Z,42.53
2017-09-26T12:30:42.168Z,40.33
2017-09-26T12:33:11.493Z,43.60
2017-09-26T12:35:40.735Z,44.00
2017-09-26T12:38:10.811Z,44.07
2017-09-26T12:40:40.833Z,52.13
2017-09-26T12:43:11.273Z,36.90
2017-09-26T12:45:40.456Z,41.17
2017-09-26T12:48:09.672Z,38.90
2017-09-26T12:50:39.818Z,41.40
2017-09-26T12:53:08.991Z,43.37
2017-09-26T12:55:38.293Z,48.30
2017-09-26T12:58:07.819Z,50.10
2017-09-26T13:00:37.939Z,49.27
2017-09-26T13:03:07.082Z,46.27
2017-09-26T13:05:36.803Z,43.97
2017-09-26T13:08:05.978Z,42.30
2017-09-26T13:10:35.556Z,51.07
2017-09-26T13:13:05.189Z,49.13
2017-09-26T13:15:34.355Z,49.97
2017-09-26T13:18:03.484Z,48.90
2017-09-26T13:20:32.919Z,51.27
2017-09-26T13:23:02.948Z,48.40
2017-09-26T13:25:32.892Z,48.90
2017-09-26T13:28:02.453Z,50.33
2017-09-26T13:30:31.628Z,49.57
2017-09-26T13:33:00.762Z,51.70
2017-09-26T13:35:30.838Z,48.80
2017-09-26T13:37:59.958Z,50.93
2017-09-26T13:40:29.055Z,53.13
2017-09-26T13:42:58.454Z,51.40
2017-09-26T13:45:27.560Z,54.67
2017-09-26T13:47:56.780Z,52.50
2017-09-26T13:50:26.083Z,54.60
2017-09-26T13:52:55.201Z,52.60
2017-09-26T13:55:24.365Z,48.77
2017-09-26T13:57:54.564Z,51.17
2017-09-26T14:00:23.714Z,53.97
2017-09-26T14:02:52.850Z,54.93
2017-09-26T14:05:22.367Z,52.60
2017-09-26T14:07:51.490Z,50.90
2017-09-26T14:10:20.637Z,53.67
2017-09-26T14:12:50.116Z,50.00
2017-09-26T14:15:19.256Z,50.33
2017-09-26T14:17:48.387Z,52.60
2017-09-26T14:20:18.089Z,55.13
2017-09-26T14:22:47.385Z,57.43
2017-09-26T14:25:17.278Z,48.50
2017-09-26T14:27:46.782Z,49.20
2017-09-26T14:30:15.915Z,51.50
2017-09-26T14:32:45.234Z,46.47
2017-09-26T14:35:14.492Z,48.30
2017-09-26T14:37:45.098Z,47.70
2017-09-26T14:40:15.017Z,46.40
2017-09-26T14:42:44.214Z,50.30
2017-09-26T14:45:15.689Z,47.07
2017-09-26T14:47:44.893Z,46.50
2017-09-26T14:50:16.303Z,46.50
2017-09-26T14:52:48.027Z,47.13
2017-09-26T14:55:17.496Z,49.27
2017-09-26T14:57:47.608Z,47.03
2017-09-26T15:00:19.084Z,48.13
2017-09-26T15:02:52.924Z,50.50
2017-09-26T15:05:22.147Z,50.13
2017-09-26T15:07:51.294Z,47.27
2017-09-26T15:10:20.441Z,44.60
2017-09-26T15:12:50.578Z,46.40
2017-09-26T15:15:19.702Z,45.90
2017-09-26T15:17:49.597Z,46.30
2017-09-26T15:20:19.122Z,45.27
2017-09-26T15:22:48.290Z,43.00
2017-09-26T15:25:17.890Z,42.83
2017-09-26T15:27:47.960Z,42.70
2017-09-26T15:30:17.217Z,40.70
2017-09-26T15:32:50.119Z,44.50
2017-09-26T15:35:19.642Z,40.17
2017-09-26T15:37:49.255Z,44.53
2017-09-26T15:40:19.558Z,41.27
2017-09-26T15:45:24.673Z,42.27
2017-09-26T15:47:53.794Z,41.50
2017-09-26T15:50:23.024Z,39.80
2017-09-26T15:52:52.410Z,41.07
2017-09-26T15:55:27.149Z,42.13
2017-09-26T15:57:56.648Z,42.40
2017-09-26T16:00:26.360Z,41.40
2017-09-26T16:02:55.805Z,41.73
2017-09-26T16:05:26.308Z,39.67
2017-09-26T16:07:55.457Z,40.53
2017-09-26T16:10:25.039Z,41.73
2017-09-26T16:12:55.591Z,38.83
2017-09-26T16:15:26.192Z,40.27
2017-09-26T16:20:34.207Z,40.10
2017-09-26T16:23:03.757Z,40.10
2017-09-26T16:25:36.247Z,37.73
2017-09-26T16:28:05.846Z,34.03
2017-09-26T16:30:35.115Z,38.70
2017-09-26T16:33:05.138Z,36.00
2017-09-26T16:35:35.490Z,36.83
2017-09-26T16:38:04.648Z,34.23
2017-09-26T16:40:35.039Z,36.80
2017-09-26T16:43:04.813Z,37.97
2017-09-26T16:45:34.887Z,37.47
2017-09-26T16:48:04.644Z,38.57
2017-09-26T16:50:34.118Z,41.90
2017-09-26T16:53:03.214Z,41.73
2017-09-26T16:55:32.338Z,40.17
2017-09-26T16:58:02.619Z,41.87
2017-09-26T17:00:32.576Z,43.80
2017-09-26T17:03:01.751Z,41.60
2017-09-26T17:05:31.135Z,40.43
2017-09-26T17:08:02.489Z,42.20
2017-09-26T17:10:33.230Z,43.23
2017-09-26T17:13:02.466Z,44.17
2017-09-26T17:15:33.073Z,44.40
2017-09-26T17:18:02.394Z,44.53
2017-09-26T17:20:32.306Z,42.73
2017-09-26T17:23:04.891Z,45.67
2017-09-26T17:25:34.055Z,42.63
2017-09-26T17:28:03.285Z,43.40
2017-09-26T17:30:33.737Z,47.93
2017-09-26T17:33:02.940Z,45.97
2017-09-26T17:35:34.673Z,48.00
2017-09-26T17:38:06.144Z,46.77
2017-09-26T17:40:35.678Z,45.07
2017-09-26T17:43:04.854Z,43.00
2017-09-26T17:45:34.343Z,46.63
2017-09-26T17:48:04.112Z,41.50
2017-09-26T17:50:35.054Z,45.90
2017-09-26T17:53:06.206Z,45.03
2017-09-26T17:55:35.362Z,43.87
2017-09-26T17:58:04.492Z,42.87
2017-09-26T18:00:34.033Z,45.93
2017-09-26T18:03:03.922Z,47.47
2017-09-26T18:05:33.686Z,47.87
2017-09-26T18:08:03.283Z,51.53
2017-09-26T18:10:32.407Z,48.40
2017-09-26T18:13:01.549Z,47.70
2017-09-26T18:15:30.705Z,47.80
2017-09-26T18:18:01.419Z,50.13
2017-09-26T18:20:30.595Z,46.87
2017-09-26T18:23:00.288Z,50.37
2017-09-26T18:25:29.384Z,48.63
2017-09-26T18:27:58.530Z,49.77
2017-09-26T18:30:28.528Z,45.07
2017-09-26T18:32:58.421Z,48.77
2017-09-26T18:35:28.412Z,48.77
2017-09-26T18:37:58.379Z,50.80
2017-09-26T18:40:27.784Z,46.73
2017-09-26T18:42:57.567Z,47.50
2017-09-26T18:45:27.182Z,48.00
2017-09-26T18:47:56.419Z,50.53
2017-09-26T18:50:25.668Z,46.53
2017-09-26T18:52:56.132Z,47.83
2017-09-26T18:55:26.055Z,49.00
2017-09-26T18:57:55.271Z,49.30
2017-09-26T19:00:24.834Z,44.07
2017-09-26T19:02:53.995Z,52.20
2017-09-26T19:05:23.495Z,51.53
2017-09-26T19:07:52.826Z,59.70
2017-09-26T19:10:21.994Z,46.83
2017-09-26T19:12:53.607Z,46.50
2017-09-26T19:15:22.761Z,53.47
2017-09-26T19:17:52.391Z,54.13
2017-09-26T19:20:21.757Z,52.83
2017-09-26T19:22:51.047Z,50.83
2017-09-26T19:25:20.330Z,48.60
2017-09-26T19:27:50.506Z,51.97
2017-09-26T19:30:20.137Z,48.37
2017-09-26T19:32:49.351Z,51.80
2017-09-26T19:35:19.793Z,49.50
2017-09-26T19:37:49.302Z,50.70
2017-09-26T19:40:20.445Z,50.43
2017-09-26T19:42:51.019Z,47.20
2017-09-26T19:45:20.752Z,49.33
2017-09-26T19:47:50.452Z,49.27
2017-09-26T19:50:19.729Z,49.03
2017-09-26T19:52:50.940Z,47.27
2017-09-26T19:55:20.559Z,49.90
2017-09-26T19:57:51.615Z,51.07
2017-09-26T20:00:23.511Z,52.40
2017-09-26T20:02:56.834Z,52.50
2017-09-26T20:05:27.807Z,48.50
2017-09-26T20:07:58.423Z,49.37
2017-09-26T20:10:27.594Z,53.30
2017-09-26T20:12:57.971Z,48.50
2017-09-26T20:15:27.218Z,49.33
2017-09-26T20:17:58.139Z,50.00
2017-09-26T20:20:28.104Z,52.63
2017-09-26T20:22:57.282Z,49.00
2017-09-26T20:25:26.475Z,55.90
2017-09-26T20:27:55.717Z,46.50
2017-09-26T20:30:25.624Z,48.13
2017-09-26T20:32:55.562Z,49.60
2017-09-26T20:35:25.387Z,47.03
2017-09-26T20:37:55.324Z,50.97
2017-09-26T20:40:25.335Z,48.70
2017-09-26T20:42:55.252Z,50.67
2017-09-26T20:45:24.613Z,51.67
2017-09-26T20:47:54.581Z,49.57
2017-09-26T20:50:25.901Z,48.60
2017-09-26T20:52:55.117Z,52.50
2017-09-26T20:55:24.473Z,50.17
2017-09-26T20:57:54.150Z,52.87
2017-09-26T21:00:23.324Z,51.60
2017-09-26T21:02:53.651Z,53.87
2017-09-26T21:05:22.936Z,52.50
2017-09-26T21:07:52.131Z,51.50
2017-09-26T21:10:21.342Z,49.30
2017-09-26T21:12:50.966Z,46.80
2017-09-26T21:15:20.826Z,47.77
2017-09-26T21:17:50.050Z,48.97
2017-09-26T21:20:19.787Z,46.77
2017-09-26T21:22:50.031Z,48.57
2017-09-26T21:25:20.258Z,46.53
2017-09-26T21:27:49.733Z,48.43
2017-09-26T21:30:20.719Z,47.83
2017-09-26T21:32:50.480Z,51.17
2017-09-26T21:35:19.764Z,47.67
2017-09-26T21:37:49.206Z,47.60
2017-09-26T21:40:19.896Z,50.57
2017-09-26T21:42:49.205Z,47.80
2017-09-26T21:45:20.187Z,53.63
2017-09-26T21:47:50.485Z,47.97
2017-09-26T21:50:19.744Z,46.67
2017-09-26T21:52:52.272Z,48.23
2017-09-26T21:55:21.906Z,49.20
2017-09-26T21:57:51.153Z,50.73
2017-09-26T22:00:21.473Z,48.93
2017-09-26T22:02:51.556Z,46.53
2017-09-26T22:05:21.052Z,47.70
2017-09-26T22:07:50.264Z,46.50
2017-09-26T22:10:20.827Z,49.20
2017-09-26T22:12:51.260Z,47.50
2017-09-26T22:15:20.759Z,48.07
2017-09-26T22:17:50.699Z,51.37
2017-09-26T22:20:20.223Z,49.17
2017-09-26T22:22:49.494Z,52.63
2017-09-26T22:25:19.809Z,50.97
2017-09-26T22:27:48.977Z,53.37
2017-09-26T22:30:18.410Z,52.23
2017-09-26T22:32:47.918Z,52.10
2017-09-26T22:35:18.567Z,57.40
2017-09-26T22:37:49.197Z,52.70
2017-09-26T22:40:23.194Z,52.93
2017-09-26T22:42:52.857Z,51.87
2017-09-26T22:45:22.216Z,55.97
2017-09-26T22:47:52.257Z,60.17
2017-09-26T22:50:22.132Z,57.90
2017-09-26T22:52:52.369Z,51.60
2017-09-26T22:55:21.998Z,54.20
2017-09-26T22:57:52.186Z,57.50
2017-09-26T23:00:22.574Z,53.90
2017-09-26T23:02:51.708Z,55.43
2017-09-26T23:05:21.192Z,56.27
2017-09-26T23:07:50.428Z,57.60
2017-09-26T23:10:20.441Z,59.03
2017-09-26T23:12:50.059Z,59.30
2017-09-26T23:15:19.301Z,57.20
2017-09-26T23:17:49.199Z,62.17
2017-09-26T23:20:18.702Z,60.93
2017-09-26T23:22:47.897Z,55.20
2017-09-26T23:25:17.096Z,58.90
2017-09-26T23:27:46.574Z,59.73
2017-09-26T23:30:15.735Z,61.63
2017-09-26T23:32:45.421Z,60.43
2017-09-26T23:35:15.086Z,61.30
2017-09-26T23:37:45.209Z,59.83
2017-09-26T23:40:14.989Z,62.70
2017-09-26T23:42:44.396Z,56.07
2017-09-26T23:45:14.644Z,56.87
2017-09-26T23:47:43.814Z,59.30
2017-09-26T23:50:13.416Z,56.87
2017-09-26T23:52:42.837Z,54.27
2017-09-26T23:55:12.184Z,56.50
2017-09-26T23:57:41.858Z,56.60
